Time;durP1;ratioP1;P1;durP2;ratioP2;P2;SDS_P1;SDS_P2;PMS_P1;PMS_P2;Temp;Humidity;BMP_temperature;BMP_pressure;BME280_temperature;BME280_humidity;BME280_pressure;Samples;Min_cycle;Max_cycle;Signal;HPM_P1;HPM_P2
2022/12/11 00:02:01;;;;;;;49.10;12.52;;;-0.20;99.90;;;;;;5019928;28;20130;-78
2022/12/11 00:04:27;;;;;;;75.72;15.18;;;-0.20;99.90;;;;;;5036423;28;20036;-78
2022/12/11 00:06:53;;;;;;;70.65;16.15;;;-0.30;99.90;;;;;;5020387;28;20041;-78
2022/12/11 00:09:20;;;;;;;75.20;14.20;;;-0.30;99.90;;;;;;5036106;28;20057;-78
2022/12/11 00:11:46;;;;;;;68.18;15.57;;;-0.30;99.90;;;;;;5036695;28;20047;-78
2022/12/11 00:14:13;;;;;;;83.53;17.38;;;-0.30;99.90;;;;;;5054460;28;20102;-78
2022/12/11 00:16:40;;;;;;;102.68;18.90;;;-0.30;99.90;;;;;;5037187;28;20502;-79
2022/12/11 00:19:06;;;;;;;58.88;11.75;;;-0.20;99.90;;;;;;5036499;28;20123;-78
2022/12/11 00:21:33;;;;;;;61.55;14.57;;;-0.20;99.90;;;;;;5052359;28;20088;-78
2022/12/11 00:23:59;;;;;;;61.22;14.20;;;-0.30;99.90;;;;;;5035438;28;20159;-78
2022/12/11 00:26:25;;;;;;;54.83;13.70;;;-0.40;99.90;;;;;;5036018;28;20045;-78
2022/12/11 00:28:53;;;;;;;55.30;12.88;;;-0.40;99.90;;;;;;5035364;28;20044;-78
2022/12/11 00:31:21;;;;;;;74.50;15.65;;;-0.40;99.90;;;;;;5035851;28;20044;-78
2022/12/11 00:33:48;;;;;;;79.38;16.35;;;-0.40;99.90;;;;;;5019311;28;20091;-77
2022/12/11 00:36:17;;;;;;;58.63;13.13;;;-0.40;99.90;;;;;;5052341;28;20162;-78
2022/12/11 00:38:43;;;;;;;42.10;12.10;;;0.50;99.90;;;;;;5052127;28;20044;-78
2022/12/11 00:41:09;;;;;;;73.70;18.13;;;-0.40;99.90;;;;;;5052080;28;20063;-76
2022/12/11 00:43:35;;;;;;;67.28;16.10;;;-0.30;99.90;;;;;;5034576;28;20037;-76
2022/12/11 00:46:02;;;;;;;78.13;15.90;;;-0.30;99.90;;;;;;5034951;28;20045;-76
2022/12/11 00:48:28;;;;;;;78.65;15.65;;;-0.30;99.90;;;;;;5068030;28;20514;-77
2022/12/11 00:50:54;;;;;;;76.18;18.00;;;-0.30;99.90;;;;;;5051630;28;20045;-76
2022/12/11 00:53:20;;;;;;;85.95;17.15;;;-0.30;99.90;;;;;;5035556;28;20542;-78
2022/12/11 00:55:46;;;;;;;83.43;16.92;;;-0.40;99.90;;;;;;5053096;28;20084;-81
2022/12/11 00:58:13;;;;;;;66.70;15.18;;;-0.20;99.90;;;;;;5036061;28;20049;-77
2022/12/11 01:00:40;;;;;;;64.28;15.73;;;-0.30;99.90;;;;;;5052819;28;20106;-79
2022/12/11 01:03:07;;;;;;;75.07;17.23;;;-0.30;99.90;;;;;;5036577;28;20053;-80
2022/12/11 01:05:34;;;;;;;89.75;17.42;;;-0.30;99.90;;;;;;5036701;28;20109;-80
2022/12/11 01:07:59;;;;;;;83.38;17.00;;;-0.20;99.90;;;;;;5052444;28;20092;-79
2022/12/11 01:10:26;;;;;;;74.13;16.60;;;-0.20;99.90;;;;;;5036490;28;20068;-80
2022/12/11 01:12:57;;;;;;;53.85;14.48;;;-0.10;99.90;;;;;;5036651;28;20048;-80
2022/12/11 01:15:29;;;;;;;59.85;13.27;;;-0.20;99.90;;;;;;5036516;28;20462;-82
2022/12/11 01:17:55;;;;;;;65.25;15.70;;;-0.20;99.90;;;;;;5036770;28;20143;-82
2022/12/11 01:20:23;;;;;;;70.47;15.48;;;-0.10;99.90;;;;;;5037135;28;20645;-81
2022/12/11 01:22:56;;;;;;;74.78;16.50;;;-0.10;99.90;;;;;;5037492;28;20414;-82
2022/12/11 01:25:22;;;;;;;65.43;15.82;;;-0.10;99.90;;;;;;5053613;28;20049;-82
2022/12/11 01:27:53;;;;;;;70.05;15.73;;;-0.10;99.90;;;;;;5053606;28;20410;-81
2022/12/11 01:30:21;;;;;;;71.85;17.63;;;0.00;99.90;;;;;;5020371;28;20106;-81
2022/12/11 01:32:47;;;;;;;71.88;15.80;;;0.00;99.90;;;;;;5036794;28;20099;-81
2022/12/11 01:35:13;;;;;;;78.07;16.90;;;0.00;99.90;;;;;;5036164;28;20049;-80
2022/12/11 01:37:39;;;;;;;66.68;15.88;;;0.10;99.90;;;;;;5069486;28;20053;-80
2022/12/11 01:40:07;;;;;;;66.07;15.18;;;0.00;99.90;;;;;;5053988;28;20506;-80
2022/12/11 01:42:33;;;;;;;61.53;13.55;;;0.10;99.90;;;;;;5036427;28;20044;-81
2022/12/11 01:45:22;;;;;;;64.15;14.40;;;0.10;99.90;;;;;;5035925;28;20095;-80
2022/12/11 01:47:55;;;;;;;56.65;13.45;;;0.10;99.90;;;;;;5052083;28;20053;-81
2022/12/11 01:50:21;;;;;;;48.35;12.20;;;0.10;99.90;;;;;;5036493;28;20056;-80
2022/12/11 01:52:48;;;;;;;58.13;12.90;;;0.10;99.90;;;;;;5020113;28;20060;-81
2022/12/11 01:55:16;;;;;;;58.58;13.32;;;0.20;99.90;;;;;;5038838;28;20053;-80
2022/12/11 01:57:45;;;;;;;59.05;13.48;;;0.20;99.90;;;;;;5040406;28;20079;-81
2022/12/11 02:00:12;;;;;;;54.88;12.65;;;0.20;99.90;;;;;;5039857;28;20721;-80
2022/12/11 02:02:38;;;;;;;49.60;14.07;;;0.20;99.90;;;;;;5040169;28;20060;-82
2022/12/11 02:05:06;;;;;;;38.97;11.10;;;0.20;99.90;;;;;;5038946;28;20098;-79
2022/12/11 02:07:38;;;;;;;44.85;12.40;;;0.20;99.90;;;;;;5041406;28;20059;-78
2022/12/11 02:10:05;;;;;;;47.45;11.70;;;0.30;99.90;;;;;;5042330;28;20611;-78
2022/12/11 02:12:47;;;;;;;45.00;12.38;;;0.20;99.90;;;;;;5025461;28;20394;-78
2022/12/11 02:15:34;;;;;;;56.53;12.00;;;0.20;99.90;;;;;;5076243;28;20055;-79
2022/12/11 02:18:17;;;;;;;51.63;12.27;;;0.20;99.90;;;;;;5041695;28;20486;-79
2022/12/11 02:20:53;;;;;;;49.25;11.68;;;0.20;99.90;;;;;;5042580;28;20478;-78
2022/12/11 02:23:33;;;;;;;44.17;11.60;;;0.30;99.90;;;;;;5058540;28;20040;-77
2022/12/11 02:26:27;;;;;;;50.40;12.90;;;0.30;99.90;;;;;;5057861;28;20402;-80
2022/12/11 02:28:56;;;;;;;48.50;11.23;;;-0.60;99.90;;;;;;5041676;28;20297;-75
2022/12/11 02:31:43;;;;;;;53.67;13.40;;;0.30;99.90;;;;;;5057350;28;20364;-75
2022/12/11 02:34:17;;;;;;;49.38;11.88;;;0.30;99.90;;;;;;5040641;28;20044;-75
2022/12/11 02:36:45;;;;;;;53.40;13.20;;;0.30;99.90;;;;;;5040805;28;20052;-75
2022/12/11 02:39:14;;;;;;;60.17;13.05;;;0.40;99.90;;;;;;5057269;28;20106;-75
2022/12/11 02:41:45;;;;;;;56.03;12.48;;;0.40;99.90;;;;;;5040859;28;20041;-75
2022/12/11 02:44:14;;;;;;;56.50;13.70;;;0.40;99.90;;;;;;5040124;28;20528;-75
2022/12/11 02:46:41;;;;;;;61.05;13.43;;;1.40;99.90;;;;;;5040839;28;20055;-75
2022/12/11 02:49:10;;;;;;;48.75;11.73;;;0.40;99.90;;;;;;5024216;28;20048;-75
2022/12/11 02:51:39;;;;;;;49.22;12.10;;;0.40;99.90;;;;;;5040679;28;20402;-78
2022/12/11 02:54:12;;;;;;;59.55;13.13;;;0.40;99.90;;;;;;5040645;28;20040;-78
2022/12/11 02:57:03;;;;;;;53.35;12.65;;;0.40;99.90;;;;;;5041481;28;20482;-76
2022/12/11 02:59:39;;;;;;;62.38;13.32;;;0.40;99.90;;;;;;5057401;28;20084;-77
2022/12/11 03:02:06;;;;;;;47.10;11.98;;;0.40;99.90;;;;;;5057532;28;20080;-78
2022/12/11 03:04:35;;;;;;;53.17;12.57;;;0.50;99.90;;;;;;5041997;28;20501;-81
2022/12/11 03:07:27;;;;;;;57.72;12.43;;;0.40;99.90;;;;;;5042522;28;20410;-79
2022/12/11 03:09:53;;;;;;;53.13;12.27;;;0.50;99.90;;;;;;5018401;28;20054;-79
2022/12/11 03:12:27;;;;;;;56.67;12.88;;;0.50;99.90;;;;;;5002966;28;20041;-79
2022/12/11 03:14:54;;;;;;;53.08;12.18;;;0.50;99.90;;;;;;5019675;28;20064;-79
2022/12/11 03:17:24;;;;;;;63.97;12.75;;;0.60;99.90;;;;;;4985151;28;20045;-77
2022/12/11 03:20:29;;;;;;;55.08;13.02;;;0.60;99.90;;;;;;5016905;28;20555;-78
2022/12/11 03:22:55;;;;;;;51.10;11.50;;;0.50;99.90;;;;;;5017355;28;20056;-78
2022/12/11 03:25:30;;;;;;;61.60;13.65;;;1.50;99.90;;;;;;5016933;28;20037;-80
2022/12/11 03:28:09;;;;;;;51.38;13.60;;;0.60;99.90;;;;;;5017520;28;20057;-81
2022/12/11 03:30:36;;;;;;;57.05;12.77;;;1.80;99.90;;;;;;5017854;28;20047;-81
2022/12/11 03:33:08;;;;;;;61.00;12.32;;;0.60;99.90;;;;;;5034587;28;20049;-80
2022/12/11 03:35:41;;;;;;;58.72;13.55;;;0.60;99.90;;;;;;5017224;28;20056;-78
2022/12/11 03:38:43;;;;;;;52.83;13.15;;;0.60;99.90;;;;;;5033771;28;20385;-77
2022/12/11 03:41:11;;;;;;;55.22;12.50;;;0.60;99.90;;;;;;5032947;28;20046;-77
2022/12/11 03:43:38;;;;;;;54.55;13.32;;;0.60;99.90;;;;;;5016639;28;20045;-78
2022/12/11 03:46:06;;;;;;;54.15;12.98;;;0.70;99.90;;;;;;5016831;28;20114;-77
2022/12/11 03:48:36;;;;;;;57.67;13.57;;;0.70;99.90;;;;;;5016398;28;20057;-78
2022/12/11 03:51:05;;;;;;;51.20;12.93;;;0.60;99.90;;;;;;5033004;28;20057;-78
2022/12/11 03:53:34;;;;;;;60.10;13.27;;;0.70;99.90;;;;;;5016315;28;20038;-78
2022/12/11 03:56:05;;;;;;;60.15;13.07;;;0.60;99.90;;;;;;5033033;28;20041;-77
2022/12/11 03:58:32;;;;;;;57.35;13.10;;;0.70;99.90;;;;;;5016791;28;20056;-79
2022/12/11 04:00:58;;;;;;;69.38;13.38;;;0.60;99.90;;;;;;5032956;28;20050;-79
2022/12/11 04:03:24;;;;;;;64.07;13.27;;;0.60;99.90;;;;;;4999772;28;20042;-78
2022/12/11 04:05:52;;;;;;;55.22;12.88;;;0.60;99.90;;;;;;5032772;28;20183;-79
2022/12/11 04:08:19;;;;;;;65.68;13.43;;;0.70;99.90;;;;;;5040947;28;20092;-80
2022/12/11 04:10:46;;;;;;;54.92;13.60;;;1.30;99.90;;;;;;5053106;28;20053;-80
2022/12/11 04:13:12;;;;;;;63.45;13.77;;;0.70;99.90;;;;;;5036891;28;20041;-80
2022/12/11 04:15:38;;;;;;;58.08;13.05;;;0.70;99.90;;;;;;5019561;28;20048;-77
2022/12/11 04:26:24;;;;;;;50.58;11.52;;;0.70;99.90;;;;;;5052267;28;20415;-79
2022/12/11 04:28:50;;;;;;;45.97;12.48;;;0.80;99.90;;;;;;5069104;28;20134;-79
2022/12/11 04:31:19;;;;;;;48.85;12.80;;;0.80;99.90;;;;;;5052538;28;20052;-80
2022/12/11 04:33:45;;;;;;;53.13;12.52;;;0.80;99.90;;;;;;5035944;28;20057;-77
2022/12/11 04:36:11;;;;;;;51.85;12.35;;;0.80;99.90;;;;;;5035713;28;20045;-77
2022/12/11 04:38:38;;;;;;;55.17;12.77;;;0.80;99.90;;;;;;5051981;28;20538;-77
2022/12/11 04:41:10;;;;;;;50.33;12.50;;;0.80;99.90;;;;;;5035720;28;20430;-77
2022/12/11 04:43:36;;;;;;;57.00;13.27;;;0.80;99.90;;;;;;5035652;28;20638;-77
2022/12/11 04:46:15;;;;;;;48.75;11.70;;;0.80;99.90;;;;;;5052009;28;20087;-76
2022/12/11 04:48:41;;;;;;;48.30;13.13;;;0.80;99.90;;;;;;5051735;28;20144;-77
2022/12/11 04:51:07;;;;;;;53.10;12.40;;;0.80;99.90;;;;;;5035690;28;20139;-78
2022/12/11 04:53:34;;;;;;;60.00;12.60;;;0.90;99.90;;;;;;5052137;28;20081;-78
2022/12/11 04:56:00;;;;;;;60.88;14.90;;;0.90;99.90;;;;;;5052175;28;20483;-77
2022/12/11 04:58:26;;;;;;;57.17;14.18;;;0.90;99.90;;;;;;5051883;28;20099;-77
2022/12/11 05:00:53;;;;;;;57.92;14.10;;;0.90;99.90;;;;;;5051919;28;20511;-79
2022/12/11 05:03:19;;;;;;;59.78;14.98;;;0.90;99.90;;;;;;5035652;28;20132;-79
2022/12/11 05:05:50;;;;;;;56.60;13.07;;;0.90;99.90;;;;;;5035729;28;20040;-80
2022/12/11 05:08:17;;;;;;;56.28;13.77;;;1.00;99.90;;;;;;5035691;28;20119;-78
2022/12/11 05:10:43;;;;;;;52.38;13.45;;;0.90;99.90;;;;;;5035094;28;20092;-78
2022/12/11 05:13:08;;;;;;;59.08;12.80;;;0.90;99.90;;;;;;5052091;28;20091;-76
2022/12/11 05:15:37;;;;;;;57.80;13.07;;;0.90;99.90;;;;;;5035192;28;20051;-77
2022/12/11 05:18:03;;;;;;;57.60;13.27;;;0.90;99.90;;;;;;5036045;28;20083;-77
2022/12/11 05:20:29;;;;;;;60.00;14.52;;;1.00;99.90;;;;;;5035088;28;20044;-77
2022/12/11 05:22:55;;;;;;;53.42;12.85;;;0.90;99.90;;;;;;5018952;28;20045;-77
2022/12/11 05:25:21;;;;;;;52.28;13.63;;;0.90;99.90;;;;;;5051430;28;20045;-77
2022/12/11 05:27:47;;;;;;;55.90;13.05;;;0.90;99.90;;;;;;5034828;28;20486;-78
2022/12/11 05:30:13;;;;;;;54.28;13.82;;;1.20;99.90;;;;;;5072542;28;20187;-78
2022/12/11 05:32:39;;;;;;;58.90;14.13;;;1.00;99.90;;;;;;5055498;28;20053;-78
2022/12/11 05:35:05;;;;;;;46.75;12.32;;;1.00;99.90;;;;;;5039258;28;20071;-79
2022/12/11 05:37:33;;;;;;;52.45;13.15;;;1.00;99.90;;;;;;5038957;28;20136;-79
2022/12/11 05:39:59;;;;;;;53.90;13.75;;;1.00;99.90;;;;;;5056201;28;20083;-79
2022/12/11 05:42:25;;;;;;;52.03;13.88;;;1.00;99.90;;;;;;5006584;28;20049;-79
2022/12/11 05:44:51;;;;;;;47.55;13.80;;;1.00;99.90;;;;;;5039348;28;20055;-79
2022/12/11 05:47:19;;;;;;;51.15;12.88;;;1.00;99.90;;;;;;5022657;28;20135;-79
2022/12/11 05:49:46;;;;;;;50.90;13.38;;;1.00;99.90;;;;;;5039146;28;20052;-78
2022/12/11 05:52:12;;;;;;;50.50;13.93;;;1.00;99.90;;;;;;5022664;28;20045;-79
2022/12/11 05:54:38;;;;;;;56.05;13.90;;;1.10;99.90;;;;;;5055335;28;20102;-77
2022/12/11 05:57:04;;;;;;;50.60;13.20;;;1.00;99.90;;;;;;5038872;28;20052;-79
2022/12/11 05:59:30;;;;;;;50.72;13.93;;;1.10;99.90;;;;;;5038977;28;20135;-78
2022/12/11 06:01:56;;;;;;;58.38;13.88;;;1.00;99.90;;;;;;5055232;28;20053;-78
2022/12/11 06:04:22;;;;;;;64.40;14.88;;;1.00;99.90;;;;;;5022145;28;20493;-79
2022/12/11 06:06:48;;;;;;;48.95;14.13;;;1.00;99.90;;;;;;5055128;28;20049;-79
2022/12/11 06:09:15;;;;;;;58.97;13.75;;;1.10;99.90;;;;;;5022619;28;20092;-81
2022/12/11 06:11:41;;;;;;;52.95;13.68;;;1.10;99.90;;;;;;5055554;28;20471;-79
2022/12/11 06:14:08;;;;;;;61.17;14.77;;;1.10;99.90;;;;;;5054933;28;20075;-79
2022/12/11 06:16:34;;;;;;;51.30;14.40;;;1.10;99.90;;;;;;5038579;28;20487;-80
2022/12/11 06:19:00;;;;;;;61.47;15.23;;;1.10;99.90;;;;;;5055146;28;20057;-80
2022/12/11 06:21:32;;;;;;;57.75;14.85;;;1.00;99.90;;;;;;5055019;28;20135;-78
2022/12/11 06:24:00;;;;;;;58.67;14.15;;;1.10;99.90;;;;;;5037817;28;20044;-80
2022/12/11 06:26:27;;;;;;;54.92;15.02;;;1.10;99.90;;;;;;5039410;28;20499;-81
2022/12/11 06:28:53;;;;;;;59.40;14.35;;;1.10;99.90;;;;;;5055754;28;20052;-82
2022/12/11 06:31:19;;;;;;;51.65;13.10;;;1.30;99.90;;;;;;5056909;28;20143;-83
2022/12/11 06:33:46;;;;;;;55.55;12.75;;;1.10;99.90;;;;;;5056303;28;20049;-84
2022/12/11 06:36:17;;;;;;;56.80;14.35;;;1.10;99.90;;;;;;5023250;28;20131;-84
2022/12/11 06:38:43;;;;;;;55.97;13.10;;;1.40;99.90;;;;;;5055798;28;20486;-82
2022/12/11 06:41:11;;;;;;;55.22;13.13;;;1.00;99.90;;;;;;5054664;28;20128;-81
2022/12/11 06:43:39;;;;;;;52.65;12.23;;;1.00;99.90;;;;;;5038351;28;20498;-83
2022/12/11 06:46:06;;;;;;;52.05;13.80;;;1.00;99.90;;;;;;5038755;28;20103;-81
2022/12/11 06:48:32;;;;;;;48.53;13.88;;;1.10;99.90;;;;;;5038698;28;20509;-82
2022/12/11 06:50:58;;;;;;;54.40;13.65;;;1.10;99.90;;;;;;5038854;28;20053;-81
2022/12/11 06:53:24;;;;;;;55.50;14.23;;;1.00;99.90;;;;;;5038899;28;20094;-82
2022/12/11 06:55:50;;;;;;;51.55;13.18;;;1.10;99.90;;;;;;5055033;28;20045;-81
2022/12/11 06:58:16;;;;;;;55.03;13.85;;;1.10;99.90;;;;;;5036938;28;20434;-82
2022/12/11 07:00:42;;;;;;;53.10;13.80;;;1.00;99.90;;;;;;5019355;28;20064;-82
2022/12/11 07:03:09;;;;;;;48.83;13.02;;;1.80;99.90;;;;;;5019081;28;20566;-83
2022/12/11 07:05:39;;;;;;;55.13;13.32;;;2.00;99.90;;;;;;4841706;28;10000411;-82
2022/12/11 07:08:06;;;;;;;56.88;15.07;;;1.10;99.90;;;;;;4987679;28;20284;-82
2022/12/11 07:10:31;;;;;;;54.40;13.50;;;1.10;99.90;;;;;;5052162;28;20124;-82
2022/12/11 07:12:57;;;;;;;52.72;13.93;;;1.10;99.90;;;;;;5052786;28;20124;-84
2022/12/11 07:15:23;;;;;;;56.25;13.90;;;1.00;99.90;;;;;;5019049;28;20057;-81
2022/12/11 07:17:49;;;;;;;47.55;13.68;;;1.10;99.90;;;;;;5018637;28;20049;-81
2022/12/11 07:20:16;;;;;;;51.47;13.75;;;1.10;99.90;;;;;;5020557;28;20055;-81
2022/12/11 07:22:42;;;;;;;56.35;14.77;;;1.10;99.90;;;;;;5038928;28;20074;-81
2022/12/11 07:25:08;;;;;;;50.70;13.60;;;1.00;99.90;;;;;;5054739;28;20083;-81
2022/12/11 07:27:34;;;;;;;48.97;12.88;;;1.10;99.90;;;;;;5038400;28;20545;-83
2022/12/11 07:30:00;;;;;;;51.35;13.05;;;1.00;99.90;;;;;;5072081;28;20045;-78
2022/12/11 07:32:26;;;;;;;47.80;13.25;;;2.10;99.90;;;;;;5057064;28;20044;-78
2022/12/11 07:34:51;;;;;;;49.13;12.98;;;1.00;99.90;;;;;;5056683;28;20098;-80
2022/12/11 07:37:17;;;;;;;47.95;12.38;;;1.10;99.90;;;;;;5073709;28;20055;-79
2022/12/11 07:39:43;;;;;;;47.08;13.00;;;1.00;99.90;;;;;;5056925;28;20054;-79
2022/12/11 07:42:09;;;;;;;35.67;9.05;;;1.80;99.90;;;;;;5057344;28;20087;-79
2022/12/11 07:44:35;;;;;;;45.40;11.98;;;2.10;99.90;;;;;;5056788;28;20448;-78
2022/12/11 07:47:01;;;;;;;47.80;12.48;;;1.00;99.90;;;;;;5057861;28;20059;-78
2022/12/11 07:49:27;;;;;;;48.88;13.70;;;1.00;99.90;;;;;;5056404;28;20494;-79
2022/12/11 07:51:53;;;;;;;47.90;11.85;;;1.00;99.90;;;;;;5055716;28;20127;-79
2022/12/11 07:54:19;;;;;;;48.35;14.20;;;1.00;99.90;;;;;;5072431;28;20471;-79
2022/12/11 07:56:46;;;;;;;48.20;12.73;;;1.00;99.90;;;;;;5056279;28;20052;-78
2022/12/11 07:59:13;;;;;;;47.20;12.77;;;1.20;99.90;;;;;;5073494;28;20063;-78
2022/12/11 08:01:40;;;;;;;41.53;12.02;;;1.00;99.90;;;;;;5055700;28;20048;-79
2022/12/11 08:04:08;;;;;;;42.03;12.20;;;1.00;99.90;;;;;;5071499;28;20390;-79
2022/12/11 08:06:36;;;;;;;41.88;11.45;;;1.00;99.90;;;;;;5038649;28;20052;-78
2022/12/11 08:09:05;;;;;;;41.22;10.60;;;1.00;99.90;;;;;;5041992;28;20053;-79
2022/12/11 08:11:31;;;;;;;45.40;11.50;;;1.00;99.90;;;;;;5052161;28;20060;-78
2022/12/11 08:13:58;;;;;;;45.15;12.70;;;1.00;99.90;;;;;;5035232;28;20403;-78
2022/12/11 08:16:25;;;;;;;45.75;11.57;;;1.30;99.90;;;;;;5036121;28;20041;-77
2022/12/11 08:18:51;;;;;;;45.80;13.05;;;1.30;99.90;;;;;;5052476;28;20049;-78
2022/12/11 08:21:22;;;;;;;46.25;13.38;;;1.00;99.90;;;;;;5036311;28;20056;-78
2022/12/11 08:23:49;;;;;;;44.67;11.02;;;1.00;99.90;;;;;;5052216;28;20128;-79
2022/12/11 08:26:18;;;;;;;40.72;10.98;;;1.00;99.90;;;;;;5035609;28;20052;-78
2022/12/11 08:28:44;;;;;;;43.15;11.35;;;1.00;99.90;;;;;;5033201;28;20048;-78
2022/12/11 08:31:12;;;;;;;47.20;12.40;;;1.10;99.90;;;;;;5035409;28;20091;-78
2022/12/11 08:33:38;;;;;;;40.03;11.13;;;1.10;99.90;;;;;;5052583;28;20048;-79
2022/12/11 08:36:07;;;;;;;47.05;12.05;;;1.50;99.90;;;;;;5052047;28;20491;-78
2022/12/11 08:38:34;;;;;;;48.92;12.15;;;1.10;99.90;;;;;;5035766;28;20044;-79
2022/12/11 08:41:16;;;;;;;45.63;12.95;;;1.10;99.90;;;;;;5033784;28;20049;-79
2022/12/11 08:43:42;;;;;;;51.22;12.30;;;1.10;99.90;;;;;;5033409;28;20490;-79
2022/12/11 08:46:09;;;;;;;46.33;12.73;;;1.10;99.90;;;;;;5050320;28;20048;-79
2022/12/11 08:48:36;;;;;;;49.90;12.02;;;1.10;99.90;;;;;;5050224;28;20049;-79
2022/12/11 08:51:05;;;;;;;45.13;12.90;;;1.20;99.90;;;;;;5050021;28;20049;-79
2022/12/11 08:53:32;;;;;;;41.30;12.55;;;1.20;99.90;;;;;;5049369;28;20128;-76
2022/12/11 08:56:05;;;;;;;48.22;12.00;;;1.80;99.90;;;;;;5049683;28;20049;-77
2022/12/11 08:58:31;;;;;;;44.08;12.73;;;1.20;99.90;;;;;;5033048;28;20041;-77
2022/12/11 09:00:57;;;;;;;48.90;12.13;;;1.20;99.90;;;;;;5049272;28;20057;-78
2022/12/11 09:03:23;;;;;;;47.83;13.50;;;1.20;99.90;;;;;;5049037;28;20055;-78
2022/12/11 09:05:50;;;;;;;44.40;13.27;;;1.20;99.90;;;;;;5032791;28;20080;-79
2022/12/11 09:08:16;;;;;;;41.65;12.52;;;1.20;99.90;;;;;;4698685;28;10000453;-79
2022/12/11 09:10:42;;;;;;;48.60;13.00;;;2.20;99.90;;;;;;5032831;28;20148;-79
2022/12/11 09:13:08;;;;;;;43.95;12.15;;;1.20;99.90;;;;;;5016618;28;20653;-79
2022/12/11 09:15:34;;;;;;;43.38;12.57;;;1.20;99.90;;;;;;5033031;28;20487;-78
2022/12/11 09:18:00;;;;;;;54.38;12.52;;;1.20;99.90;;;;;;5049877;28;20067;-79
2022/12/11 09:20:26;;;;;;;46.03;13.40;;;2.30;99.90;;;;;;5032684;28;20044;-78
2022/12/11 09:22:52;;;;;;;51.30;13.75;;;1.20;99.90;;;;;;5033216;28;20099;-78
2022/12/11 09:25:18;;;;;;;59.28;13.15;;;1.20;99.90;;;;;;5016236;28;20044;-79
2022/12/11 09:27:44;;;;;;;45.78;13.00;;;1.20;99.90;;;;;;5049870;28;20624;-79
2022/12/11 09:30:10;;;;;;;47.78;12.85;;;1.20;99.90;;;;;;5016336;28;20640;-79
2022/12/11 09:32:36;;;;;;;44.80;13.68;;;1.30;99.90;;;;;;5016678;28;20049;-79
2022/12/11 09:35:02;;;;;;;47.80;13.40;;;2.30;99.90;;;;;;5049444;28;20086;-78
2022/12/11 09:37:28;;;;;;;58.20;14.63;;;1.30;99.90;;;;;;5033033;28;20037;-79
2022/12/11 09:39:53;;;;;;;48.83;13.63;;;1.30;99.90;;;;;;5032943;28;20403;-78
2022/12/11 09:42:41;;;;;;;51.72;13.70;;;1.20;99.90;;;;;;5048682;28;20127;-79
2022/12/11 09:45:12;;;;;;;48.20;12.38;;;1.30;99.90;;;;;;5049123;28;20045;-80
2022/12/11 09:47:44;;;;;;;51.25;13.32;;;1.30;99.90;;;;;;5033191;28;20145;-79
2022/12/11 09:50:14;;;;;;;46.55;13.32;;;1.30;99.90;;;;;;5032863;28;20049;-79
2022/12/11 09:52:59;;;;;;;48.10;13.77;;;1.30;99.90;;;;;;5049219;28;20045;-79
2022/12/11 09:55:30;;;;;;;54.45;14.10;;;1.40;99.90;;;;;;5049386;28;20407;-79
2022/12/11 09:58:16;;;;;;;49.25;13.88;;;1.30;99.90;;;;;;5049878;28;20045;-79
2022/12/11 10:01:18;;;;;;;54.67;14.15;;;1.30;99.90;;;;;;5032763;28;20096;-80
2022/12/11 10:04:06;;;;;;;51.92;13.48;;;1.30;99.90;;;;;;5016692;28;20122;-78
2022/12/11 10:06:40;;;;;;;54.35;14.27;;;1.30;99.90;;;;;;5032628;28;20048;-78
2022/12/11 10:09:24;;;;;;;54.15;14.57;;;1.30;99.90;;;;;;5043912;28;20458;-78
2022/12/11 10:11:59;;;;;;;49.42;12.75;;;1.30;99.90;;;;;;5069449;28;20079;-79
2022/12/11 10:14:41;;;;;;;48.50;13.63;;;1.30;99.90;;;;;;5078311;28;20159;-79
2022/12/11 10:17:06;;;;;;;;;;;1.30;99.90;;;;;;5075744;28;20098;-80
2022/12/11 10:19:33;;;;;;;42.25;12.82;;;1.40;99.90;;;;;;5076218;28;19975;-78
2022/12/11 10:22:01;;;;;;;56.65;13.40;;;1.30;99.90;;;;;;5076612;28;20044;-78
2022/12/11 10:24:41;;;;;;;43.60;13.07;;;1.30;99.90;;;;;;5076240;28;20086;-78
2022/12/11 10:27:20;;;;;;;59.65;14.13;;;1.40;99.90;;;;;;5076855;28;20119;-78
2022/12/11 10:30:00;;;;;;;52.03;13.43;;;1.40;99.90;;;;;;5076071;28;20055;-79
2022/12/11 10:32:42;;;;;;;51.83;13.07;;;1.40;99.90;;;;;;5076194;28;20048;-79
2022/12/11 10:35:16;;;;;;;44.22;13.68;;;1.40;99.90;;;;;;5075997;28;20044;-79
2022/12/11 10:37:42;;;;;;;49.72;14.88;;;1.80;99.90;;;;;;5092818;28;20044;-78
2022/12/11 10:40:09;;;;;;;52.45;14.95;;;1.60;99.90;;;;;;5076200;28;20116;-78
2022/12/11 10:42:35;;;;;;;55.10;14.50;;;1.50;99.90;;;;;;5075717;28;20063;-77
2022/12/11 10:45:03;;;;;;;49.83;13.43;;;2.40;99.90;;;;;;5092529;28;20464;-77
2022/12/11 10:47:29;;;;;;;41.58;14.23;;;1.60;99.90;;;;;;5075765;28;20044;-79
2022/12/11 10:50:01;;;;;;;48.88;14.38;;;1.50;99.90;;;;;;5076002;28;20059;-78
2022/12/11 10:52:45;;;;;;;46.28;13.60;;;1.60;99.90;;;;;;5075615;28;20117;-78
2022/12/11 10:55:17;;;;;;;47.72;13.45;;;1.60;99.90;;;;;;5092466;28;20138;-78
2022/12/11 10:57:44;;;;;;;47.03;14.13;;;1.60;99.90;;;;;;5075979;28;20044;-79
2022/12/11 11:00:31;;;;;;;41.35;12.55;;;1.60;99.90;;;;;;5075753;28;20055;-79
2022/12/11 11:02:58;;;;;;;46.40;13.70;;;1.60;99.90;;;;;;5092988;28;20090;-78
2022/12/11 11:05:42;;;;;;;52.35;14.43;;;1.60;99.90;;;;;;5041910;28;20040;-79
2022/12/11 11:08:15;;;;;;;49.15;14.02;;;1.60;99.90;;;;;;5092029;28;20052;-80
2022/12/11 11:10:56;;;;;;;51.22;14.13;;;1.60;99.90;;;;;;5067505;28;20045;-79
2022/12/11 11:13:24;;;;;;;43.42;12.63;;;1.60;99.90;;;;;;5072240;28;20052;-79
2022/12/11 11:16:10;;;;;;;48.00;12.95;;;1.60;99.90;;;;;;5055299;28;20040;-78
2022/12/11 11:18:38;;;;;;;59.95;18.80;;;1.60;99.90;;;;;;5071454;28;20076;-79
2022/12/11 11:21:05;;;;;;;49.85;13.88;;;2.40;99.90;;;;;;5055066;28;20293;-76
2022/12/11 11:23:32;;;;;;;45.30;13.88;;;2.10;99.90;;;;;;5054759;28;20048;-77
2022/12/11 11:26:06;;;;;;;45.40;13.48;;;2.00;99.90;;;;;;5055542;28;20083;-77
2022/12/11 11:28:47;;;;;;;45.47;13.68;;;1.60;99.90;;;;;;5071413;28;20090;-76
2022/12/11 11:31:16;;;;;;;48.72;14.05;;;1.60;99.90;;;;;;5055578;28;20044;-76
2022/12/11 11:34:07;;;;;;;45.63;14.10;;;1.70;99.90;;;;;;5054889;28;20047;-78
2022/12/11 11:36:36;;;;;;;45.33;13.90;;;1.60;99.90;;;;;;5049963;28;20044;-77
2022/12/11 11:39:24;;;;;;;44.17;13.65;;;1.60;99.90;;;;;;5054283;28;20162;-78
2022/12/11 11:42:12;;;;;;;47.70;14.45;;;1.70;99.90;;;;;;5052303;28;20052;-78
2022/12/11 11:44:46;;;;;;;41.20;12.50;;;1.60;99.90;;;;;;5051117;28;20053;-77
2022/12/11 11:47:33;;;;;;;47.40;13.98;;;1.60;99.90;;;;;;5034561;28;20128;-77
2022/12/11 11:50:19;;;;;;;44.67;12.95;;;2.00;99.90;;;;;;5052513;28;20131;-77
2022/12/11 11:52:57;;;;;;;49.08;14.43;;;1.60;99.90;;;;;;5057160;28;20053;-78
2022/12/11 11:55:45;;;;;;;43.40;14.32;;;1.60;99.90;;;;;;5069605;28;20507;-78
2022/12/11 11:58:21;;;;;;;43.90;14.32;;;1.60;99.90;;;;;;5054193;28;20055;-78
2022/12/11 12:00:48;;;;;;;44.50;13.18;;;1.70;99.90;;;;;;5065097;28;20510;-78
2022/12/11 12:03:22;;;;;;;49.10;13.82;;;1.70;99.90;;;;;;5054374;28;20379;-77
2022/12/11 12:06:15;;;;;;;41.03;12.45;;;1.70;99.90;;;;;;5053620;28;20136;-77
2022/12/11 12:08:41;;;;;;;48.17;14.48;;;1.70;99.90;;;;;;5030567;28;20969;-77
2022/12/11 12:11:20;;;;;;;42.53;13.88;;;1.70;99.90;;;;;;5044470;28;20044;-77
2022/12/11 12:14:04;;;;;;;44.90;13.50;;;1.70;99.90;;;;;;5048168;28;20182;-78
2022/12/11 12:17:05;;;;;;;42.47;13.57;;;1.70;99.90;;;;;;5033131;28;20045;-77
2022/12/11 12:20:04;;;;;;;41.88;13.27;;;1.70;99.90;;;;;;5018131;28;20584;-77
2022/12/11 12:22:38;;;;;;;42.15;14.25;;;1.70;99.90;;;;;;5033280;28;20040;-78
2022/12/11 12:25:30;;;;;;;44.88;14.48;;;1.70;99.90;;;;;;5034712;28;20045;-78
2022/12/11 12:28:17;;;;;;;42.75;13.93;;;1.70;99.90;;;;;;5033092;28;20167;-75
2022/12/11 12:31:01;;;;;;;42.00;13.45;;;1.70;99.90;;;;;;5042294;28;20060;-77
2022/12/11 12:33:57;;;;;;;46.28;14.48;;;1.70;99.90;;;;;;5047925;28;20048;-77
2022/12/11 12:36:49;;;;;;;45.83;14.00;;;1.70;99.90;;;;;;5031114;28;20083;-77
2022/12/11 12:39:23;;;;;;;47.88;14.38;;;1.70;99.90;;;;;;4993540;28;20140;-77
2022/12/11 12:42:16;;;;;;;45.92;15.02;;;1.70;99.90;;;;;;5033305;28;20095;-76
2022/12/11 12:45:11;;;;;;;43.28;13.98;;;1.70;99.90;;;;;;5033547;28;20135;-78
2022/12/11 12:47:38;;;;;;;44.95;15.38;;;1.70;99.90;;;;;;5033594;28;20059;-78
2022/12/11 12:50:11;;;;;;;47.35;14.48;;;1.60;99.90;;;;;;5032834;28;20045;-78
2022/12/11 12:52:39;;;;;;;48.80;13.90;;;1.70;99.90;;;;;;5047299;28;20041;-76
2022/12/11 12:55:15;;;;;;;46.10;14.25;;;1.70;99.90;;;;;;5049942;28;20048;-76
2022/12/11 12:57:47;;;;;;;44.95;13.98;;;1.70;99.90;;;;;;5033245;28;20763;-76
2022/12/11 13:00:28;;;;;;;44.42;13.65;;;1.70;99.90;;;;;;5043535;28;20110;-76
2022/12/11 13:02:55;;;;;;;45.67;14.43;;;1.70;99.90;;;;;;5049243;28;20052;-76